createdAt,value
2023-05-13T00:05:35.448Z,38.49
2023-05-13T00:10:27.779Z,38.56
2023-05-13T00:16:48.519Z,38.68
2023-05-13T00:21:37.286Z,38.73
2023-05-13T00:27:40.813Z,38.82
2023-05-13T00:36:00.002Z,38.95
2023-05-13T00:40:57.835Z,39.02
2023-05-13T00:46:47.764Z,39.08
2023-05-13T00:53:20.377Z,39.16
2023-05-13T00:58:37.074Z,39.25
2023-05-13T01:09:35.145Z,39.29
2023-05-13T01:19:25.622Z,39.32
2023-05-13T01:20:38.846Z,39.49
2023-05-13T01:25:37.346Z,39.51
2023-05-13T01:30:49.591Z,39.53
2023-05-13T01:35:57.040Z,39.57
2023-05-13T01:41:46.543Z,39.60
2023-05-13T01:47:06.506Z,39.71
2023-05-13T01:52:33.675Z,39.75
2023-05-13T01:57:27.165Z,39.84
2023-05-13T02:02:41.191Z,39.92
2023-05-13T02:08:30.393Z,39.88
2023-05-13T02:14:01.451Z,39.99
2023-05-13T02:19:18.045Z,40.04
2023-05-13T02:24:45.361Z,40.12
2023-05-13T02:30:32.187Z,40.30
2023-05-13T02:36:25.078Z,40.26
2023-05-13T02:41:48.225Z,40.28
2023-05-13T02:47:00.470Z,40.44
2023-05-13T02:52:16.127Z,40.43
2023-05-13T02:58:15.244Z,40.49
2023-05-13T03:04:04.828Z,40.64
2023-05-13T03:09:58.180Z,40.83
2023-05-13T03:15:25.360Z,40.91
2023-05-13T03:21:14.601Z,41.05
2023-05-13T03:27:11.410Z,41.15
2023-05-13T03:32:27.096Z,41.23
2023-05-13T03:38:40.075Z,41.55
2023-05-13T03:44:36.015Z,41.38
2023-05-13T03:50:48.692Z,41.54
2023-05-13T03:56:05.646Z,41.63
2023-05-13T04:01:53.057Z,41.85
2023-05-13T04:07:40.300Z,41.87
2023-05-13T04:14:13.087Z,42.01
2023-05-13T04:20:00.299Z,42.15
2023-05-13T04:25:57.849Z,42.20
2023-05-13T04:31:43.218Z,42.20
2023-05-13T04:37:28.141Z,42.09
2023-05-13T04:42:58.630Z,42.18
2023-05-13T04:47:58.489Z,42.16
2023-05-13T04:53:03.822Z,42.28
2023-05-13T04:58:11.695Z,42.35
2023-05-13T05:03:27.699Z,42.30
2023-05-13T05:08:35.046Z,42.46
2023-05-13T05:13:42.362Z,42.47
2023-05-13T05:18:49.743Z,42.47
2023-05-13T05:23:57.075Z,42.42
2023-05-13T05:29:04.436Z,42.36
2023-05-13T05:34:11.829Z,42.45
2023-05-13T05:39:19.205Z,42.51
2023-05-13T05:44:26.483Z,42.56
2023-05-13T05:49:33.721Z,42.52
2023-05-13T05:54:40.970Z,42.51
2023-05-13T05:59:48.240Z,42.53
2023-05-13T06:04:55.669Z,42.67
2023-05-13T06:10:38.199Z,42.50
2023-05-13T06:16:47.023Z,42.55
2023-05-13T06:21:41.459Z,42.75
2023-05-13T06:26:49.347Z,42.75
2023-05-13T06:32:01.927Z,42.71
2023-05-13T06:37:18.283Z,42.68
2023-05-13T06:42:25.450Z,42.64
2023-05-13T06:47:33.117Z,42.70
2023-05-13T06:53:20.222Z,42.28
2023-05-13T06:59:10.222Z,42.85
2023-05-13T07:08:20.525Z,41.96
2023-05-13T07:11:34.509Z,42.35
2023-05-13T07:16:13.022Z,42.12
2023-05-13T07:21:45.658Z,41.83
2023-05-13T07:39:25.015Z,42.10
2023-05-13T07:44:37.577Z,43.13
2023-05-13T07:49:49.846Z,43.57
2023-05-13T07:54:57.309Z,44.19
2023-05-13T08:00:04.517Z,44.54
2023-05-13T08:05:11.848Z,45.70
2023-05-13T08:10:19.006Z,45.99
2023-05-13T08:15:26.267Z,45.31
2023-05-13T08:20:33.468Z,46.05
2023-05-13T08:25:41.024Z,45.58
2023-05-13T08:30:48.236Z,45.24
2023-05-13T08:35:55.639Z,45.63
2023-05-13T08:41:03.039Z,45.24
2023-05-13T08:46:10.538Z,45.30
2023-05-13T08:51:17.800Z,45.16
2023-05-13T08:56:25.175Z,45.96
2023-05-13T09:01:32.447Z,45.58
2023-05-13T09:06:39.869Z,46.21
2023-05-13T09:11:47.230Z,46.28
2023-05-13T09:16:54.768Z,43.65
2023-05-13T09:22:02.288Z,43.23
2023-05-13T09:27:09.866Z,42.66
2023-05-13T09:32:17.567Z,42.21
2023-05-13T09:37:24.880Z,42.36
2023-05-13T09:42:32.332Z,42.66
2023-05-13T09:47:39.649Z,42.71
2023-05-13T09:52:46.943Z,42.28
2023-05-13T09:57:54.339Z,42.21
2023-05-13T10:03:01.623Z,41.92
2023-05-13T10:08:08.796Z,41.97
2023-05-13T10:13:16.115Z,41.90
2023-05-13T10:18:23.980Z,41.58
2023-05-13T10:23:31.072Z,41.69
2023-05-13T10:28:38.324Z,41.30
2023-05-13T10:33:45.582Z,41.14
2023-05-13T10:38:52.926Z,41.04
2023-05-13T10:44:00.706Z,40.95
2023-05-13T10:49:07.997Z,40.77
2023-05-13T10:54:15.283Z,40.69
2023-05-13T10:59:22.532Z,40.49
2023-05-13T11:04:29.802Z,40.38
2023-05-13T11:09:37.091Z,40.31
2023-05-13T11:14:44.276Z,40.20
2023-05-13T11:19:51.595Z,40.25
2023-05-13T11:24:59.018Z,40.15
2023-05-13T11:30:06.288Z,40.22
2023-05-13T11:35:13.640Z,40.31
2023-05-13T11:40:21.111Z,40.25
2023-05-13T11:45:28.374Z,40.28
2023-05-13T11:50:35.593Z,40.18
2023-05-13T11:55:42.938Z,40.11
2023-05-13T12:00:50.053Z,39.96
2023-05-13T12:05:57.323Z,39.94
2023-05-13T12:11:04.621Z,39.83
2023-05-13T12:16:11.854Z,39.75
2023-05-13T12:21:19.129Z,39.73
2023-05-13T12:26:26.386Z,39.62
2023-05-13T12:31:33.879Z,39.54
2023-05-13T12:36:41.800Z,39.42
2023-05-13T12:41:49.288Z,39.33
2023-05-13T12:46:57.235Z,39.19
2023-05-13T12:52:04.435Z,39.11
2023-05-13T12:57:11.713Z,39.04
2023-05-13T13:02:19.015Z,38.98
2023-05-13T13:07:26.323Z,38.89
2023-05-13T13:12:33.619Z,38.81
2023-05-13T13:17:43.936Z,38.78
2023-05-13T13:22:51.139Z,38.71
2023-05-13T13:28:01.358Z,38.55
2023-05-13T13:33:10.177Z,38.53
2023-05-13T13:38:15.842Z,38.49
2023-05-13T13:43:23.068Z,38.47
2023-05-13T13:48:30.339Z,38.42
2023-05-13T13:53:37.622Z,38.42
2023-05-13T13:58:44.795Z,38.33
2023-05-13T14:03:52.216Z,38.31
2023-05-13T14:08:59.327Z,38.25
2023-05-13T14:14:06.582Z,38.20
2023-05-13T14:19:13.934Z,38.29
2023-05-13T14:24:21.332Z,38.19
2023-05-13T14:29:31.546Z,38.16
2023-05-13T14:34:41.641Z,38.21
2023-05-13T14:39:49.821Z,38.27
2023-05-13T14:44:55.165Z,38.18
2023-05-13T14:50:09.382Z,38.13
2023-05-13T14:55:17.061Z,37.91
2023-05-13T15:00:45.918Z,38.02
2023-05-13T15:06:06.054Z,37.90
2023-05-13T15:11:22.615Z,37.93
2023-05-13T15:16:32.208Z,37.86
2023-05-13T15:21:44.818Z,37.89
2023-05-13T15:26:52.054Z,38.11
2023-05-13T15:32:01.068Z,38.06
2023-05-13T15:37:08.909Z,38.10
2023-05-13T15:42:16.216Z,38.07
2023-05-13T15:47:23.827Z,38.05
2023-05-13T15:52:31.160Z,37.96
2023-05-13T15:57:38.435Z,37.82
2023-05-13T16:02:45.932Z,37.87
2023-05-13T16:07:53.419Z,37.98
2023-05-13T16:13:00.608Z,38.20
2023-05-13T16:18:08.000Z,38.36
2023-05-13T16:23:15.240Z,38.70
2023-05-13T16:28:22.710Z,38.86
2023-05-13T16:33:30.051Z,38.80
2023-05-13T16:38:37.371Z,38.82
2023-05-13T16:43:44.671Z,39.24
2023-05-13T16:48:52.404Z,39.26
2023-05-13T16:54:03.341Z,39.17
2023-05-13T16:59:08.167Z,38.69
2023-05-13T17:04:15.808Z,38.52
2023-05-13T17:09:23.843Z,38.58
2023-05-13T17:14:31.774Z,38.56
2023-05-13T17:19:39.955Z,38.04
2023-05-13T17:24:47.803Z,38.22
2023-05-13T17:29:55.530Z,38.26
2023-05-13T17:35:03.299Z,38.13
2023-05-13T17:40:11.362Z,38.22
2023-05-13T17:45:19.280Z,38.06
2023-05-13T17:50:27.181Z,38.48
2023-05-13T17:55:35.653Z,38.14
2023-05-13T18:00:43.336Z,37.84
2023-05-13T18:05:51.502Z,37.17
2023-05-13T18:10:59.391Z,37.69
2023-05-13T18:16:07.149Z,37.52
2023-05-13T18:21:29.964Z,37.66
2023-05-13T18:26:39.347Z,37.96
2023-05-13T18:31:47.082Z,38.02
2023-05-13T18:36:54.885Z,38.00
2023-05-13T18:42:06.243Z,38.08
2023-05-13T18:47:11.380Z,37.56
2023-05-13T18:52:19.230Z,36.65
2023-05-13T18:57:27.179Z,37.38
2023-05-13T19:02:35.720Z,37.80
2023-05-13T19:07:43.307Z,37.60
2023-05-13T19:12:51.462Z,37.96
2023-05-13T19:18:00.362Z,38.01
2023-05-13T19:23:08.295Z,38.08
2023-05-13T19:28:21.472Z,38.10
2023-05-13T19:33:30.494Z,38.12
2023-05-13T19:38:40.355Z,38.08
2023-05-13T19:44:00.577Z,37.47
2023-05-13T19:49:07.256Z,38.12
2023-05-13T19:54:15.599Z,37.94
2023-05-13T19:59:29.921Z,37.81
2023-05-13T20:04:42.224Z,37.76
2023-05-13T20:10:12.530Z,37.79
2023-05-13T20:15:02.419Z,37.67
2023-05-13T20:20:13.154Z,37.65
2023-05-13T20:25:20.125Z,37.57
2023-05-13T20:30:28.501Z,37.53
2023-05-13T20:35:36.490Z,37.63
2023-05-13T20:40:52.906Z,37.63
2023-05-13T20:46:00.734Z,37.56
2023-05-13T20:51:10.491Z,37.44
2023-05-13T20:56:25.667Z,37.38
2023-05-13T21:01:40.566Z,37.37
2023-05-13T21:06:49.203Z,37.39
2023-05-13T21:11:57.024Z,37.31
2023-05-13T21:17:08.043Z,37.25
2023-05-13T21:22:15.503Z,37.17
2023-05-13T21:27:26.506Z,37.21
2023-05-13T21:32:33.908Z,37.09
2023-05-13T21:37:42.029Z,36.97
2023-05-13T21:42:56.681Z,36.87
2023-05-13T21:48:06.905Z,36.92
2023-05-13T21:53:14.239Z,36.84
2023-05-13T21:58:23.481Z,36.65
2023-05-13T22:03:28.998Z,36.45
2023-05-13T22:08:36.166Z,36.33
2023-05-13T22:13:43.457Z,36.19
2023-05-13T22:18:57.200Z,36.06
2023-05-13T22:24:04.162Z,35.77
2023-05-13T22:29:11.429Z,35.76
2023-05-13T22:34:18.918Z,35.46
2023-05-13T22:39:26.173Z,35.32
2023-05-13T22:44:33.449Z,35.32
2023-05-13T22:50:22.628Z,35.59
2023-05-13T23:00:35.097Z,35.49
2023-05-13T23:07:18.674Z,35.53
2023-05-13T23:16:09.452Z,35.59
2023-05-13T23:21:07.986Z,35.70
2023-05-13T23:28:10.759Z,35.86
2023-05-13T23:34:01.028Z,35.87
2023-05-13T23:39:46.421Z,36.13
2023-05-13T23:45:19.000Z,36.20
2023-05-13T23:50:44.823Z,36.27
2023-05-13T23:56:11.965Z,36.46
